sensor_id;sensor_type;location;lat;lon;timestamp;pressure;altitude;pressure_sealevel;temperature;humidity
53758;BME280;39674;59.860;30.672;2022-09-27T00:00:10;100744.84;;;7.69;100.00
53758;BME280;39674;59.860;30.672;2022-09-27T00:03:20;100821.00;;;8.16;100.00
53758;BME280;39674;59.860;30.672;2022-09-27T00:06:26;100774.16;;;7.82;100.00
53758;BME280;39674;59.860;30.672;2022-09-27T00:09:04;100716.09;;;7.42;100.00
53758;BME280;39674;59.860;30.672;2022-09-27T00:11:59;100782.34;;;7.74;100.00
53758;BME280;39674;59.860;30.672;2022-09-27T00:14:40;100855.41;;;8.12;100.00
53758;BME280;39674;59.860;30.672;2022-09-27T00:17:25;100777.31;;;7.68;100.00
53758;BME280;39674;59.860;30.672;2022-09-27T00:20:33;100843.00;;;8.15;100.00
53758;BME280;39674;59.860;30.672;2022-09-27T00:23:35;100748.56;;;7.63;100.00
53758;BME280;39674;59.860;30.672;2022-09-27T00:26:30;100724.75;;;7.44;100.00
53758;BME280;39674;59.860;30.672;2022-09-27T00:29:44;100717.91;;;7.40;100.00
53758;BME280;39674;59.860;30.672;2022-09-27T00:32:49;100797.75;;;7.83;100.00
53758;BME280;39674;59.860;30.672;2022-09-27T00:35:45;100852.31;;;8.00;100.00
53758;BME280;39674;59.860;30.672;2022-09-27T00:38:36;100849.28;;;8.11;100.00
53758;BME280;39674;59.860;30.672;2022-09-27T00:41:51;100854.53;;;8.11;100.00
53758;BME280;39674;59.860;30.672;2022-09-27T00:45:00;100850.75;;;8.18;100.00
53758;BME280;39674;59.860;30.672;2022-09-27T00:48:19;100717.34;;;7.32;100.00
53758;BME280;39674;59.860;30.672;2022-09-27T00:51:37;100751.16;;;7.41;100.00
53758;BME280;39674;59.860;30.672;2022-09-27T00:54:46;100850.97;;;7.90;100.00
53758;BME280;39674;59.860;30.672;2022-09-27T00:57:56;100714.97;;;7.02;100.00
53758;BME280;39674;59.860;30.672;2022-09-27T01:01:01;100848.75;;;7.79;100.00
53758;BME280;39674;59.860;30.672;2022-09-27T01:04:15;100860.00;;;7.83;100.00
53758;BME280;39674;59.860;30.672;2022-09-27T01:07:39;100782.03;;;7.36;100.00
53758;BME280;39674;59.860;30.672;2022-09-27T01:10:53;100776.53;;;7.42;100.00
53758;BME280;39674;59.860;30.672;2022-09-27T01:14:28;100782.53;;;7.46;100.00
53758;BME280;39674;59.860;30.672;2022-09-27T01:17:58;100725.00;;;7.14;100.00
53758;BME280;39674;59.860;30.672;2022-09-27T01:21:36;100845.81;;;7.87;100.00
53758;BME280;39674;59.860;30.672;2022-09-27T01:24:47;100736.19;;;7.19;100.00
53758;BME280;39674;59.860;30.672;2022-09-27T01:28:04;100858.88;;;7.90;100.00
53758;BME280;39674;59.860;30.672;2022-09-27T01:31:18;100853.72;;;7.87;100.00
53758;BME280;39674;59.860;30.672;2022-09-27T01:34:05;100734.16;;;7.04;100.00
53758;BME280;39674;59.860;30.672;2022-09-27T01:37:30;100781.03;;;7.38;100.00
53758;BME280;39674;59.860;30.672;2022-09-27T01:43:54;100733.22;;;7.05;100.00
53758;BME280;39674;59.860;30.672;2022-09-27T01:47:18;100816.41;;;7.53;100.00
53758;BME280;39674;59.860;30.672;2022-09-27T01:50:18;100818.22;;;7.51;100.00
53758;BME280;39674;59.860;30.672;2022-09-27T01:53:17;100737.22;;;6.92;100.00
53758;BME280;39674;59.860;30.672;2022-09-27T01:56:32;100741.97;;;6.80;100.00
53758;BME280;39674;59.860;30.672;2022-09-27T01:59:36;100746.25;;;6.83;100.00
53758;BME280;39674;59.860;30.672;2022-09-27T02:03:14;100794.88;;;7.18;100.00
53758;BME280;39674;59.860;30.672;2022-09-27T02:06:29;100739.19;;;6.85;100.00
53758;BME280;39674;59.860;30.672;2022-09-27T02:09:29;100808.69;;;7.25;100.00
53758;BME280;39674;59.860;30.672;2022-09-27T02:12:42;100741.75;;;6.86;100.00
53758;BME280;39674;59.860;30.672;2022-09-27T02:15:51;100828.13;;;7.45;100.00
53758;BME280;39674;59.860;30.672;2022-09-27T02:22:03;100751.81;;;6.99;100.00
53758;BME280;39674;59.860;30.672;2022-09-27T02:25:38;100741.75;;;6.86;100.00
53758;BME280;39674;59.860;30.672;2022-09-27T02:29:12;100753.88;;;6.90;100.00
53758;BME280;39674;59.860;30.672;2022-09-27T02:32:10;100734.44;;;6.71;100.00
53758;BME280;39674;59.860;30.672;2022-09-27T02:35:53;100869.03;;;7.52;100.00
53758;BME280;39674;59.860;30.672;2022-09-27T02:39:08;100809.16;;;7.11;100.00
53758;BME280;39674;59.860;30.672;2022-09-27T02:42:17;100744.22;;;6.66;100.00
53758;BME280;39674;59.860;30.672;2022-09-27T02:45:34;100743.38;;;6.65;100.00
53758;BME280;39674;59.860;30.672;2022-09-27T02:48:59;100759.78;;;6.72;100.00
53758;BME280;39674;59.860;30.672;2022-09-27T02:51:53;100797.44;;;6.96;100.00
53758;BME280;39674;59.860;30.672;2022-09-27T02:55:00;100842.09;;;7.21;100.00
53758;BME280;39674;59.860;30.672;2022-09-27T03:02:17;100796.69;;;6.93;100.00
53758;BME280;39674;59.860;30.672;2022-09-27T03:05:38;100748.00;;;6.58;100.00
53758;BME280;39674;59.860;30.672;2022-09-27T03:08:26;100805.78;;;6.82;100.00
53758;BME280;39674;59.860;30.672;2022-09-27T03:11:28;100869.56;;;7.11;100.00
53758;BME280;39674;59.860;30.672;2022-09-27T03:15:15;100733.25;;;6.28;100.00
53758;BME280;39674;59.860;30.672;2022-09-27T03:18:08;100738.50;;;6.28;100.00
53758;BME280;39674;59.860;30.672;2022-09-27T03:22:07;100784.53;;;6.65;100.00
53758;BME280;39674;59.860;30.672;2022-09-27T03:24:46;100752.16;;;6.39;100.00
53758;BME280;39674;59.860;30.672;2022-09-27T03:31:10;100835.28;;;6.90;100.00
53758;BME280;39674;59.860;30.672;2022-09-27T03:35:05;100752.91;;;6.42;100.00
53758;BME280;39674;59.860;30.672;2022-09-27T03:38:17;100787.16;;;6.65;100.00
53758;BME280;39674;59.860;30.672;2022-09-27T04:13:56;100765.47;;;6.33;100.00
53758;BME280;39674;59.860;30.672;2022-09-27T04:17:06;100845.47;;;6.73;100.00
53758;BME280;39674;59.860;30.672;2022-09-27T04:20:25;100768.25;;;6.26;100.00
53758;BME280;39674;59.860;30.672;2022-09-27T04:23:09;100764.16;;;6.19;100.00
53758;BME280;39674;59.860;30.672;2022-09-27T04:25:56;100755.53;;;6.16;100.00
53758;BME280;39674;59.860;30.672;2022-09-27T04:33:21;100780.28;;;6.34;100.00
53758;BME280;39674;59.860;30.672;2022-09-27T04:36:52;100794.69;;;6.49;100.00
53758;BME280;39674;59.860;30.672;2022-09-27T04:39:46;100878.88;;;6.95;100.00
53758;BME280;39674;59.860;30.672;2022-09-27T04:42:27;100762.13;;;6.28;100.00
53758;BME280;39674;59.860;30.672;2022-09-27T07:23:26;100945.66;;;9.66;100.00
53758;BME280;39674;59.860;30.672;2022-09-27T08:04:28;100956.81;;;10.32;86.25
53758;BME280;39674;59.860;30.672;2022-09-27T08:23:19;100959.25;;;10.55;88.29
53758;BME280;39674;59.860;30.672;2022-09-27T11:23:27;100843.03;;;12.09;62.83
53758;BME280;39674;59.860;30.672;2022-09-27T11:27:12;100916.50;;;12.53;62.31
53758;BME280;39674;59.860;30.672;2022-09-27T15:46:24;100830.41;;;10.06;88.14
53758;BME280;39674;59.860;30.672;2022-09-27T20:49:23;100863.47;;;6.30;100.00
53758;BME280;39674;59.860;30.672;2022-09-27T20:53:59;100856.47;;;6.31;100.00
53758;BME280;39674;59.860;30.672;2022-09-27T21:15:42;100886.78;;;6.11;98.22
53758;BME280;39674;59.860;30.672;2022-09-27T21:23:51;100875.75;;;5.98;98.04
53758;BME280;39674;59.860;30.672;2022-09-27T21:31:06;100889.81;;;5.95;97.89
53758;BME280;39674;59.860;30.672;2022-09-27T21:39:25;100876.53;;;5.72;97.82
53758;BME280;39674;59.860;30.672;2022-09-27T21:47:04;100961.88;;;6.14;98.78
53758;BME280;39674;59.860;30.672;2022-09-27T21:50:36;100942.59;;;5.83;97.97
53758;BME280;39674;59.860;30.672;2022-09-27T21:55:44;100867.25;;;5.28;98.26
53758;BME280;39674;59.860;30.672;2022-09-27T21:59:08;100954.22;;;5.74;98.41
53758;BME280;39674;59.860;30.672;2022-09-27T22:09:16;100873.94;;;5.06;99.37
53758;BME280;39674;59.860;30.672;2022-09-27T22:20:06;100990.13;;;5.71;98.51
53758;BME280;39674;59.860;30.672;2022-09-27T22:23:27;100892.00;;;5.17;98.24
53758;BME280;39674;59.860;30.672;2022-09-27T22:41:19;100990.88;;;5.41;97.60
53758;BME280;39674;59.860;30.672;2022-09-27T22:44:43;100983.97;;;5.39;98.01
53758;BME280;39674;59.860;30.672;2022-09-27T22:51:59;100983.38;;;5.27;99.06
53758;BME280;39674;59.860;30.672;2022-09-27T22:58:15;100850.28;;;4.40;99.06
53758;BME280;39674;59.860;30.672;2022-09-27T23:01:39;100910.47;;;4.76;98.59
53758;BME280;39674;59.860;30.672;2022-09-27T23:05:30;100915.41;;;4.88;98.51
53758;BME280;39674;59.860;30.672;2022-09-27T23:08:55;100898.59;;;4.62;97.41
53758;BME280;39674;59.860;30.672;2022-09-27T23:12:17;100841.75;;;4.31;96.79
53758;BME280;39674;59.860;30.672;2022-09-27T23:19:23;100915.84;;;4.70;97.34
53758;BME280;39674;59.860;30.672;2022-09-27T23:22:55;100829.19;;;4.10;97.79
53758;BME280;39674;59.860;30.672;2022-09-27T23:26:17;100819.47;;;4.15;97.80
53758;BME280;39674;59.860;30.672;2022-09-27T23:29:51;100900.28;;;4.63;97.80
53758;BME280;39674;59.860;30.672;2022-09-27T23:40:31;100873.22;;;4.28;97.80
53758;BME280;39674;59.860;30.672;2022-09-27T23:44:21;100898.88;;;4.50;98.29
53758;BME280;39674;59.860;30.672;2022-09-27T23:47:34;100897.22;;;4.46;98.24
53758;BME280;39674;59.860;30.672;2022-09-27T23:51:14;100879.38;;;4.26;99.13
53758;BME280;39674;59.860;30.672;2022-09-27T23:57:51;100825.19;;;3.93;98.36
